Time;durP1;ratioP1;P1;durP2;ratioP2;P2;SDS_P1;SDS_P2;PMS_P1;PMS_P2;Temp;Humidity;BMP_temperature;BMP_pressure;BME280_temperature;BME280_humidity;BME280_pressure;Samples;Min_cycle;Max_cycle;Signal;HPM_P1;HPM_P2
2023/04/16 00:00:51;;;;;;;4.15;2.78;;;;;;;10.06;100.00;101390.75;4995994;28;20040;-77
2023/04/16 00:03:17;;;;;;;3.70;2.53;;;;;;;10.01;100.00;101382.31;4996288;28;20112;-77
2023/04/16 00:05:42;;;;;;;4.07;1.75;;;;;;;9.96;100.00;101376.56;4999182;28;20431;-80
2023/04/16 00:08:08;;;;;;;2.85;1.70;;;;;;;10.04;100.00;101381.16;4999756;28;20033;-78
2023/04/16 00:10:34;;;;;;;3.75;2.22;;;;;;;10.05;100.00;101382.84;5017056;28;20021;-77
2023/04/16 00:13:00;;;;;;;3.30;2.65;;;;;;;10.03;100.00;101377.63;5015701;28;20030;-77
2023/04/16 00:15:26;;;;;;;4.97;2.80;;;;;;;10.04;100.00;101379.31;4999432;28;20487;-77
2023/04/16 00:17:51;;;;;;;3.53;2.15;;;;;;;9.93;100.00;101360.78;5015696;28;20580;-78
2023/04/16 00:20:19;;;;;;;2.90;2.25;;;;;;;10.08;100.00;101383.38;5015400;28;20156;-78
2023/04/16 00:22:45;;;;;;;4.15;2.60;;;;;;;10.16;100.00;101390.66;5015662;28;20021;-76
2023/04/16 00:25:12;;;;;;;2.25;1.73;;;;;;;10.21;100.00;101387.47;4983564;28;20048;-78
2023/04/16 00:27:38;;;;;;;3.45;2.42;;;;;;;10.23;100.00;101390.88;5015570;28;20040;-78
2023/04/16 00:30:04;;;;;;;3.05;2.28;;;;;;;10.21;100.00;101377.56;4999753;28;20041;-77
2023/04/16 00:32:30;;;;;;;4.45;2.95;;;;;;;10.32;100.00;101387.28;4999574;28;20034;-77
2023/04/16 00:34:56;;;;;;;5.03;3.05;;;;;;;10.33;100.00;101380.88;4999440;28;20030;-79
2023/04/16 00:37:21;;;;;;;6.40;3.17;;;;;;;10.30;100.00;101381.19;4999498;28;20468;-79
2023/04/16 00:39:47;;;;;;;5.63;3.33;;;;;;;10.37;100.00;101389.47;4999346;28;20432;-78
2023/04/16 00:42:12;;;;;;;7.30;3.53;;;;;;;10.26;100.00;101366.34;4999392;28;20044;-77
2023/04/16 00:44:38;;;;;;;6.68;3.80;;;;;;;10.41;100.00;101388.16;5015696;28;20435;-79
2023/04/16 00:47:06;;;;;;;11.27;4.13;;;;;;;10.41;100.00;101388.16;4999274;28;20034;-77
2023/04/16 00:49:32;;;;;;;5.88;3.88;;;;;;;10.42;100.00;101393.34;4999066;28;20041;-78
2023/04/16 00:51:57;;;;;;;6.47;3.22;;;;;;;10.43;100.00;101395.06;4998823;28;20396;-77
2023/04/16 00:54:24;;;;;;;6.05;3.55;;;;;;;10.43;100.00;101397.75;4999136;28;20034;-78
2023/04/16 00:56:50;;;;;;;6.28;3.00;;;;;;;10.45;100.00;101393.06;5014882;28;20068;-78
2023/04/16 00:59:16;;;;;;;6.65;3.30;;;;;;;10.45;100.00;101387.69;4998800;28;20531;-79
2023/04/16 01:01:41;;;;;;;4.97;3.22;;;;;;;10.45;100.00;101402.94;5015026;28;20116;-77
2023/04/16 01:04:07;;;;;;;6.30;3.90;;;;;;;10.45;100.00;101397.56;4998718;28;20457;-78
2023/04/16 01:06:33;;;;;;;4.93;3.20;;;;;;;10.42;100.00;101390.66;4998887;28;20053;-78
2023/04/16 01:08:59;;;;;;;7.20;3.30;;;;;;;10.43;100.00;101388.84;5014961;28;20443;-77
2023/04/16 01:11:25;;;;;;;5.72;3.40;;;;;;;10.42;100.00;101385.28;5015007;28;20057;-78
2023/04/16 01:13:50;;;;;;;7.00;3.60;;;;;;;10.46;100.00;101377.75;4982278;28;20037;-77
2023/04/16 01:16:16;;;;;;;6.47;4.30;;;;;;;10.40;100.00;101373.00;4997518;28;20485;-78
2023/04/16 01:18:42;;;;;;;6.72;4.22;;;;;;;10.47;100.00;101388.34;5014578;28;20412;-77
2023/04/16 01:21:07;;;;;;;6.97;4.25;;;;;;;10.48;100.00;101384.66;5014722;28;20056;-77
2023/04/16 01:23:33;;;;;;;6.70;4.35;;;;;;;10.44;100.00;101377.06;5014810;28;20029;-78
2023/04/16 01:25:59;;;;;;;6.75;3.97;;;;;;;10.45;100.00;101386.81;5015997;28;20022;-78
2023/04/16 01:28:25;;;;;;;7.70;4.43;;;;;;;10.40;100.00;101376.56;4998289;28;20053;-78
2023/04/16 01:30:51;;;;;;;7.90;5.18;;;;;;;10.44;100.00;101382.44;5014231;28;20030;-77
2023/04/16 01:33:17;;;;;;;7.10;4.50;;;;;;;10.45;100.00;101381.44;5014336;28;20036;-77
2023/04/16 01:35:42;;;;;;;9.18;5.10;;;;;;;10.45;100.00;101382.31;5014444;28;20407;-78
2023/04/16 01:38:08;;;;;;;9.35;5.55;;;;;;;10.40;100.00;101375.69;4998343;28;20468;-78
2023/04/16 01:40:35;;;;;;;8.77;5.13;;;;;;;10.44;100.00;101377.91;5014186;28;20022;-78
2023/04/16 01:43:01;;;;;;;8.60;4.63;;;;;;;10.38;100.00;101375.03;4997577;28;20057;-78
2023/04/16 01:45:26;;;;;;;8.40;4.30;;;;;;;10.45;100.00;101376.94;5015123;28;20053;-78
2023/04/16 01:47:52;;;;;;;7.35;4.63;;;;;;;10.44;100.00;101375.22;5014230;28;20056;-77
2023/04/16 01:50:19;;;;;;;8.02;4.47;;;;;;;10.47;100.00;101382.13;4998057;28;20036;-78
2023/04/16 01:52:44;;;;;;;8.20;4.93;;;;;;;10.44;100.00;101377.91;5014127;28;20122;-81
2023/04/16 01:55:10;;;;;;;8.23;4.93;;;;;;;10.41;100.00;101366.66;5013813;28;20037;-77
2023/04/16 01:57:36;;;;;;;10.50;4.30;;;;;;;10.45;100.00;101384.13;5014107;28;20045;-78
2023/04/16 02:00:03;;;;;;;8.40;4.90;;;;;;;10.47;100.00;101379.44;4981367;28;20415;-77
2023/04/16 02:02:30;;;;;;;6.78;4.32;;;;;;;10.49;100.00;101374.75;4997767;28;20041;-77
2023/04/16 02:04:56;;;;;;;9.43;3.95;;;;;;;10.49;100.00;101378.28;4981460;28;20072;-78
2023/04/16 02:07:23;;;;;;;6.97;4.03;;;;;;;10.43;100.00;101348.53;5013876;28;20037;-77
2023/04/16 02:09:51;;;;;;;7.18;4.05;;;;;;;10.52;100.00;101369.06;5013655;28;20033;-78
2023/04/16 02:12:17;;;;;;;4.65;3.15;;;;;;;10.48;100.00;101357.78;5013781;28;20022;-77
2023/04/16 02:14:42;;;;;;;7.30;3.25;;;;;;;10.46;100.00;101354.41;5013347;28;20037;-80
2023/04/16 02:17:11;;;;;;;6.80;2.85;;;;;;;10.66;100.00;101371.13;4997092;28;20149;-78
2023/04/16 02:19:36;;;;;;;5.75;3.47;;;;;;;10.74;100.00;101386.44;4997429;28;20472;-78
2023/04/16 02:22:02;;;;;;;4.88;3.08;;;;;;;10.74;100.00;101378.38;4979952;28;20048;-77
2023/04/16 02:24:28;;;;;;;7.40;3.72;;;;;;;10.75;100.00;101383.63;5013358;28;20044;-80
2023/04/16 02:26:53;;;;;;;5.45;3.05;;;;;;;10.75;100.00;101385.47;4996611;28;20041;-80
2023/04/16 02:29:20;;;;;;;5.57;2.95;;;;;;;10.76;100.00;101395.22;5013418;28;20045;-77
2023/04/16 02:31:45;;;;;;;6.78;3.35;;;;;;;10.70;100.00;101379.72;5013344;28;20026;-78
2023/04/16 02:34:12;;;;;;;4.25;2.72;;;;;;;10.76;100.00;101389.84;4997458;28;20030;-78
2023/04/16 02:36:38;;;;;;;4.07;2.05;;;;;;;10.79;100.00;101382.28;4997124;28;20044;-78
2023/04/16 02:39:04;;;;;;;3.47;1.77;;;;;;;10.86;100.00;101382.47;5013071;28;20072;-77
2023/04/16 02:41:29;;;;;;;5.40;2.78;;;;;;;10.93;100.00;101382.69;4996859;28;20068;-77
2023/04/16 02:43:55;;;;;;;3.95;2.28;;;;;;;10.96;100.00;101383.19;5013459;28;20180;-78
2023/04/16 02:46:21;;;;;;;3.00;1.70;;;;;;;10.99;100.00;101387.41;4981017;28;20034;-78
2023/04/16 02:48:47;;;;;;;4.28;2.38;;;;;;;11.02;100.00;101388.94;4964762;28;20042;-77
2023/04/16 02:51:12;;;;;;;4.30;2.53;;;;;;;11.02;100.00;101391.63;4980981;28;20034;-77
2023/04/16 02:53:38;;;;;;;4.55;2.72;;;;;;;11.01;100.00;101390.78;4980384;28;20398;-80
2023/04/16 02:56:04;;;;;;;5.05;2.55;;;;;;;10.96;100.00;101376.97;5013095;28;20472;-80
2023/04/16 02:58:30;;;;;;;4.75;2.53;;;;;;;11.04;100.00;101378.84;4996579;28;20026;-78
2023/04/16 03:00:55;;;;;;;3.38;1.70;;;;;;;11.03;100.00;101379.84;4980452;28;20365;-77
2023/04/16 03:03:21;;;;;;;4.60;2.47;;;;;;;11.05;100.00;101381.38;4996416;28;20030;-78
2023/04/16 03:05:47;;;;;;;4.18;2.45;;;;;;;11.03;100.00;101372.59;5013143;28;20045;-78
2023/04/16 03:08:13;;;;;;;5.95;2.42;;;;;;;11.03;100.00;101379.84;4980377;28;20054;-81
2023/04/16 03:10:40;;;;;;;3.83;2.60;;;;;;;11.05;100.00;101380.53;4996529;28;20385;-78
2023/04/16 03:13:06;;;;;;;5.57;2.67;;;;;;;11.06;100.00;101384.88;4996611;28;20460;-80
2023/04/16 03:15:32;;;;;;;3.83;2.25;;;;;;;11.06;100.00;101383.06;4996337;28;20096;-77
2023/04/16 03:17:58;;;;;;;4.38;2.30;;;;;;;11.07;100.00;101378.53;4996351;28;20546;-78
2023/04/16 03:20:24;;;;;;;4.05;2.17;;;;;;;11.05;100.00;101380.53;5012668;28;20464;-80
2023/04/16 03:22:53;;;;;;;3.45;2.20;;;;;;;11.08;100.00;101388.25;5012607;28;20034;-78
2023/04/16 03:25:18;;;;;;;5.65;2.47;;;;;;;11.09;100.00;101387.28;4996873;28;20128;-79
2023/04/16 03:27:44;;;;;;;4.43;2.42;;;;;;;11.04;100.00;101384.22;4996468;28;20128;-78
2023/04/16 03:30:11;;;;;;;4.10;2.20;;;;;;;11.02;100.00;101378.16;5012125;28;20499;-78
2023/04/16 03:32:37;;;;;;;3.42;2.35;;;;;;;11.07;100.00;101390.13;5012738;28;20034;-77
2023/04/16 03:35:04;;;;;;;3.05;2.05;;;;;;;11.07;100.00;101381.22;5012090;28;20121;-78
2023/04/16 03:37:30;;;;;;;3.63;1.88;;;;;;;10.97;100.00;101368.72;4980463;28;20042;-78
2023/04/16 03:39:56;;;;;;;6.65;2.60;;;;;;;11.05;100.00;101381.38;4998048;28;20103;-79
2023/04/16 03:42:22;;;;;;;3.53;2.13;;;;;;;10.96;100.00;101367.03;5016518;28;20036;-79
2023/04/16 03:44:47;;;;;;;4.60;2.15;;;;;;;11.02;100.00;101375.47;5016615;28;20088;-78
2023/04/16 03:47:13;;;;;;;3.88;2.20;;;;;;;11.01;100.00;101374.63;5000025;28;20144;-78
2023/04/16 03:49:39;;;;;;;4.88;2.00;;;;;;;11.02;100.00;101384.38;5017667;28;20030;-78
2023/04/16 03:52:04;;;;;;;3.35;2.15;;;;;;;11.05;100.00;101389.44;4999441;28;20046;-77
2023/04/16 03:54:30;;;;;;;3.47;2.42;;;;;;;11.08;100.00;101388.25;4999665;28;20384;-78
2023/04/16 03:56:56;;;;;;;5.50;1.98;;;;;;;11.07;100.00;101389.28;5016164;28;20392;-78
2023/04/16 03:59:22;;;;;;;4.93;1.95;;;;;;;11.05;100.00;101388.59;4999866;28;20116;-78
2023/04/16 04:01:47;;;;;;;4.10;1.80;;;;;;;11.08;100.00;101399.03;5016186;28;20117;-77
2023/04/16 04:04:13;;;;;;;3.08;1.73;;;;;;;11.08;100.00;101394.47;5000010;28;20424;-78
2023/04/16 04:06:39;;;;;;;5.35;1.90;;;;;;;11.13;100.00;101391.31;4999922;28;20038;-78
2023/04/16 04:09:05;;;;;;;4.22;2.00;;;;;;;11.15;100.00;101392.00;5017469;28;20042;-78
2023/04/16 04:11:31;;;;;;;4.22;1.85;;;;;;;11.12;100.00;101387.78;4999945;28;20041;-80
2023/04/16 04:13:56;;;;;;;4.40;1.63;;;;;;;11.15;100.00;101383.91;4999826;28;20034;-79
2023/04/16 04:16:22;;;;;;;4.88;1.90;;;;;;;11.22;100.00;101393.03;4999703;28;20038;-77
2023/04/16 04:18:47;;;;;;;4.90;2.08;;;;;;;11.22;100.00;101393.88;5015688;28;20026;-78
2023/04/16 04:21:13;;;;;;;4.45;2.17;;;;;;;11.23;100.00;101389.31;4999303;28;20033;-78
2023/04/16 04:23:40;;;;;;;2.85;1.70;;;;;;;11.17;100.00;101376.53;4999331;28;20030;-78
2023/04/16 04:26:06;;;;;;;4.13;1.73;;;;;;;11.26;100.00;101388.16;5015615;28;20026;-77
2023/04/16 04:28:33;;;;;;;6.07;2.15;;;;;;;11.29;100.00;101387.81;5016003;28;20040;-78
2023/04/16 04:30:59;;;;;;;4.32;1.90;;;;;;;11.30;100.00;101387.66;4999686;28;20041;-77
2023/04/16 04:33:25;;;;;;;3.38;1.83;;;;;;;11.31;100.00;101393.88;4999724;28;20033;-78
2023/04/16 04:35:51;;;;;;;4.03;1.63;;;;;;;11.27;100.00;101396.03;5016843;28;20136;-78
2023/04/16 04:38:21;;;;;;;3.60;1.85;;;;;;;11.31;100.00;101408.19;5016742;28;20463;-78
2023/04/16 04:40:55;;;;;;;5.75;2.08;;;;;;;11.26;100.00;101397.06;5015446;28;20084;-78
2023/04/16 04:43:21;;;;;;;4.82;1.85;;;;;;;11.33;100.00;101398.09;4998995;28;20030;-78
2023/04/16 04:45:47;;;;;;;4.85;1.70;;;;;;;11.35;100.00;101404.16;5015317;28;20084;-77
2023/04/16 04:48:14;;;;;;;3.10;1.65;;;;;;;11.36;100.00;101403.16;4999200;28;20472;-78
2023/04/16 04:50:40;;;;;;;5.43;1.70;;;;;;;11.33;100.00;101408.03;4998562;28;20034;-77
2023/04/16 04:53:09;;;;;;;4.55;1.85;;;;;;;11.33;100.00;101389.19;4999356;28;20034;-78
2023/04/16 04:55:38;;;;;;;8.55;2.42;;;;;;;11.38;100.00;101405.69;4982861;28;20045;-78
2023/04/16 04:58:05;;;;;;;3.22;1.70;;;;;;;11.37;100.00;101404.81;4998787;28;20065;-78
2023/04/16 05:00:31;;;;;;;6.43;1.77;;;;;;;11.40;100.00;101401.78;4982602;28;20030;-77
2023/04/16 05:03:00;;;;;;;5.53;2.25;;;;;;;11.40;100.00;101401.78;4998519;28;20025;-78
2023/04/16 05:05:26;;;;;;;3.47;1.75;;;;;;;11.41;100.00;101403.50;4998870;28;20072;-78
2023/04/16 05:07:51;;;;;;;3.53;1.40;;;;;;;11.43;100.00;101408.69;5016109;28;20042;-77
2023/04/16 05:10:19;;;;;;;7.53;3.35;;;;;;;11.42;100.00;101398.94;5015028;28;20030;-77
2023/04/16 05:12:47;;;;;;;4.68;2.00;;;;;;;11.43;100.00;101416.78;4982544;28;20032;-78
2023/04/16 05:15:12;;;;;;;4.22;1.70;;;;;;;11.42;100.00;101402.47;5014665;28;20057;-78
2023/04/16 05:17:38;;;;;;;6.53;2.45;;;;;;;11.43;100.00;101406.88;5014650;28;20111;-79
2023/04/16 05:20:04;;;;;;;5.00;2.03;;;;;;;11.40;100.00;101401.78;4981933;28;20461;-77
2023/04/16 05:22:30;;;;;;;8.75;2.22;;;;;;;11.41;100.00;101405.34;5014472;28;20026;-77
2023/04/16 05:24:55;;;;;;;7.75;2.13;;;;;;;11.46;100.00;101411.09;4998239;28;20064;-77
2023/04/16 05:27:21;;;;;;;3.25;1.73;;;;;;;11.46;100.00;101416.47;4998407;28;20036;-77
2023/04/16 05:29:46;;;;;;;4.57;1.70;;;;;;;11.47;100.00;101417.31;4998232;28;20388;-77
2023/04/16 05:32:12;;;;;;;5.88;1.45;;;;;;;11.43;100.00;101416.78;4998469;28;20042;-77
2023/04/16 05:34:38;;;;;;;7.03;1.73;;;;;;;11.41;100.00;101413.44;5014354;28;20034;-78
2023/04/16 05:37:06;;;;;;;2.75;1.73;;;;;;;11.48;100.00;101424.38;4982223;28;20532;-78
2023/04/16 05:39:31;;;;;;;5.72;1.67;;;;;;;11.46;100.00;101424.56;4998243;28;20040;-77
2023/04/16 05:41:57;;;;;;;5.85;1.88;;;;;;;11.48;100.00;101427.91;5014288;28;20384;-80
2023/04/16 05:44:23;;;;;;;6.70;2.17;;;;;;;11.51;100.00;101434.81;5014000;28;20415;-77
2023/04/16 05:46:48;;;;;;;4.35;1.65;;;;;;;11.51;100.00;101437.50;5015153;28;20032;-77
2023/04/16 05:49:17;;;;;;;8.38;1.80;;;;;;;11.42;100.00;101426.72;5014300;28;20036;-77
2023/04/16 05:51:43;;;;;;;5.43;1.58;;;;;;;11.53;100.00;101443.56;4982532;28;20038;-77
2023/04/16 05:54:08;;;;;;;5.50;2.53;;;;;;;11.44;100.00;101435.47;5014130;28;20049;-77
2023/04/16 05:56:34;;;;;;;6.13;1.40;;;;;;;11.52;100.00;101448.13;5014035;28;20033;-78
2023/04/16 05:59:00;;;;;;;5.00;1.58;;;;;;;11.54;100.00;101450.66;5014029;28;20037;-77
2023/04/16 06:01:25;;;;;;;4.30;2.20;;;;;;;11.55;100.00;101452.34;5013715;28;20026;-77
2023/04/16 06:03:51;;;;;;;8.00;2.13;;;;;;;11.55;100.00;101453.16;5013380;28;20040;-78
2023/04/16 06:06:16;;;;;;;6.25;2.50;;;;;;;11.55;100.00;101453.16;4981756;28;20034;-77
2023/04/16 06:08:42;;;;;;;8.05;1.98;;;;;;;11.54;100.00;101451.50;5013699;28;20476;-78
2023/04/16 06:11:11;;;;;;;5.50;1.55;;;;;;;11.59;100.00;101456.38;5014026;28;20085;-79
2023/04/16 06:13:37;;;;;;;4.28;1.90;;;;;;;11.67;100.00;101461.78;4981314;28;20492;-77
2023/04/16 06:16:03;;;;;;;4.10;1.65;;;;;;;11.71;100.00;101463.13;5013786;28;20038;-77
2023/04/16 06:18:29;;;;;;;3.45;2.00;;;;;;;11.75;100.00;101463.63;5013711;28;20403;-77
2023/04/16 06:20:55;;;;;;;3.70;1.55;;;;;;;11.80;100.00;101463.97;4997158;28;20160;-78
2023/04/16 06:23:20;;;;;;;2.58;1.40;;;;;;;11.83;100.00;101466.38;4997425;28;20030;-77
2023/04/16 06:25:46;;;;;;;9.32;2.17;;;;;;;11.79;100.00;101451.53;4997061;28;20038;-78
2023/04/16 06:28:11;;;;;;;5.93;1.67;;;;;;;11.91;100.00;101466.41;4997425;28;20029;-77
2023/04/16 06:30:38;;;;;;;4.50;1.83;;;;;;;11.99;100.00;101469.09;5013351;28;20034;-77
2023/04/16 06:33:04;;;;;;;3.72;2.05;;;;;;;12.06;100.00;101472.78;4981163;28;20139;-77
2023/04/16 06:35:29;;;;;;;5.38;1.63;;;;;;;12.14;100.00;101468.41;5013369;28;20073;-79
2023/04/16 06:37:55;;;;;;;4.85;1.90;;;;;;;12.16;100.00;101461.00;4997334;28;20038;-78
2023/04/16 06:40:21;;;;;;;4.28;1.77;;;;;;;12.32;100.00;101478.00;4980957;28;20113;-78
2023/04/16 06:42:47;;;;;;;4.25;1.75;;;;;;;12.37;100.00;101468.59;5013364;28;20033;-78
2023/04/16 06:45:15;;;;;;;6.28;2.20;;;;;;;12.48;100.00;101479.00;4997238;28;20038;-77
2023/04/16 06:47:41;;;;;;;10.63;2.13;;;;;;;12.49;100.00;101476.16;5013037;28;20037;-81
2023/04/16 06:50:06;;;;;;;5.38;1.85;;;;;;;12.47;100.00;101472.78;4997253;28;20059;-78
2023/04/16 06:52:32;;;;;;;4.57;1.58;;;;;;;12.58;100.00;101484.22;4996821;28;20085;-77
2023/04/16 06:55:03;;;;;;;5.88;1.90;;;;;;;12.64;100.00;101486.22;4996629;28;20036;-78
2023/04/16 06:57:29;;;;;;;5.35;2.05;;;;;;;12.67;100.00;101489.41;4980821;28;20361;-77
2023/04/16 06:59:57;;;;;;;3.88;1.52;;;;;;;12.75;100.00;101489.44;4981177;28;20400;-78
2023/04/16 07:02:23;;;;;;;5.63;1.88;;;;;;;12.93;100.00;101485.66;4980551;28;20033;-77
2023/04/16 07:04:51;;;;;;;5.20;1.80;;;;;;;13.20;100.00;101500.56;5014108;28;20032;-77
2023/04/16 07:07:24;;;;;;;3.97;1.55;;;;;;;13.46;100.00;101492.22;4996945;28;20100;-77
2023/04/16 07:09:51;;;;;;;6.55;2.22;;;;;;;13.92;100.00;101492.28;4996652;28;20036;-78
2023/04/16 07:12:33;;;;;;;4.97;2.00;;;;;;;14.05;100.00;101481.72;5012505;28;20064;-81
2023/04/16 07:15:03;;;;;;;5.70;2.03;;;;;;;14.17;100.00;101479.41;4978871;28;20026;-79
2023/04/16 07:17:32;;;;;;;10.15;2.30;;;;;;;14.71;100.00;101454.91;4996619;28;20037;-82
2023/04/16 07:20:27;;;;;;;6.25;2.50;;;;;;;16.02;100.00;101484.84;4996396;28;20070;-82
2023/04/16 07:22:58;;;;;;;11.85;4.78;;;;;;;16.01;98.90;101461.50;4981267;28;20030;-78
2023/04/16 07:25:23;;;;;;;9.40;3.45;;;;;;;16.92;96.10;101492.28;5012745;28;20042;-78
2023/04/16 07:27:49;;;;;;;8.48;3.88;;;;;;;17.73;90.11;101516.06;5012678;28;20133;-79
2023/04/16 07:30:15;;;;;;;9.93;2.42;;;;;;;18.23;86.74;101513.88;5012379;28;20037;-81
2023/04/16 07:32:44;;;;;;;4.13;1.90;;;;;;;18.77;82.67;101506.56;4996326;28;20038;-79
2023/04/16 07:35:10;;;;;;;4.93;1.95;;;;;;;18.67;78.58;101506.13;4980157;28;20136;-79
2023/04/16 07:37:35;;;;;;;3.05;1.33;;;;;;;18.91;75.87;101528.34;4980055;28;20591;-82
2023/04/16 07:40:01;;;;;;;5.78;2.30;;;;;;;18.41;76.52;101515.13;5012069;28;20030;-81
2023/04/16 07:42:27;;;;;;;6.28;1.67;;;;;;;18.89;76.85;101525.81;4996188;28;20026;-78
2023/04/16 07:44:54;;;;;;;5.25;1.83;;;;;;;19.30;73.16;101527.41;5012163;28;20030;-80
2023/04/16 07:47:21;;;;;;;4.47;1.42;;;;;;;19.69;71.42;101533.78;5012041;28;20408;-79
2023/04/16 07:49:50;;;;;;;3.55;1.27;;;;;;;19.30;69.39;101530.97;5012337;28;20038;-78
2023/04/16 07:52:16;;;;;;;4.93;1.50;;;;;;;19.35;70.52;101529.50;4995958;28;20021;-77
2023/04/16 07:54:43;;;;;;;5.63;3.00;;;;;;;19.80;72.22;101530.38;4996375;28;20040;-77
2023/04/16 07:57:11;;;;;;;2.15;1.25;;;;;;;20.69;65.87;101535.84;4995857;28;20463;-77
2023/04/16 07:59:36;;;;;;;7.15;1.50;;;;;;;21.14;62.11;101541.06;4980245;28;20034;-79
2023/04/16 08:02:02;;;;;;;3.95;1.10;;;;;;;20.91;59.62;101545.31;5012060;28;20056;-78
2023/04/16 08:04:28;;;;;;;3.45;1.00;;;;;;;20.12;62.75;101546.75;4996251;28;20038;-77
2023/04/16 08:06:54;;;;;;;4.82;1.23;;;;;;;19.16;68.00;101542.97;4996007;28;20029;-78
2023/04/16 08:09:21;;;;;;;2.92;1.63;;;;;;;18.64;71.01;101545.50;5012206;28;20092;-77
2023/04/16 08:11:48;;;;;;;5.63;1.40;;;;;;;19.96;68.72;101553.59;5012052;28;20108;-79
2023/04/16 08:14:15;;;;;;;4.47;1.50;;;;;;;20.94;63.84;101544.84;5011933;28;20400;-78
2023/04/16 08:16:41;;;;;;;3.40;1.50;;;;;;;21.73;58.46;101542.28;4995593;28;20061;-78
2023/04/16 08:19:09;;;;;;;6.22;1.50;;;;;;;22.12;56.44;101546.38;5013500;28;20030;-79
2023/04/16 08:21:40;;;;;;;2.40;1.25;;;;;;;22.15;55.81;101545.06;5011628;28;20029;-78
2023/04/16 08:24:06;;;;;;;2.97;1.25;;;;;;;22.51;55.06;101533.13;5012129;28;20037;-77
2023/04/16 08:26:31;;;;;;;4.15;1.55;;;;;;;23.36;53.60;101547.44;5014925;28;20034;-78
2023/04/16 08:28:57;;;;;;;3.53;1.50;;;;;;;23.68;51.79;101543.19;4999216;28;20059;-81
2023/04/16 08:31:22;;;;;;;4.38;1.35;;;;;;;23.69;49.98;101538.50;4999329;28;20472;-78
2023/04/16 08:33:48;;;;;;;4.65;1.40;;;;;;;23.69;50.67;101513.81;5015393;28;20435;-78
2023/04/16 08:36:14;;;;;;;6.25;1.75;;;;;;;23.95;49.95;101537.13;5015395;28;20488;-79
2023/04/16 08:38:39;;;;;;;4.60;1.58;;;;;;;24.05;49.41;101536.47;5015296;28;20030;-80
2023/04/16 08:41:10;;;;;;;3.58;1.52;;;;;;;24.41;48.19;101529.69;5015219;28;20021;-78
2023/04/16 08:43:43;;;;;;;3.47;1.13;;;;;;;24.85;47.47;101531.75;4999669;28;20033;-78
2023/04/16 08:46:10;;;;;;;91.25;11.13;;;;;;;24.91;45.04;101534.34;5015564;28;20099;-81
2023/04/16 08:48:37;;;;;;;5.00;1.88;;;;;;;24.69;45.67;101530.69;5015171;28;20033;-81
2023/04/16 08:51:05;;;;;;;5.82;1.70;;;;;;;24.42;45.61;101534.09;5015076;28;20037;-81
2023/04/16 08:53:50;;;;;;;4.10;1.60;;;;;;;24.60;47.20;101530.28;4999083;28;20029;-79
2023/04/16 08:56:20;;;;;;;4.57;1.70;;;;;;;25.13;44.90;101537.13;4999192;28;20033;-79
2023/04/16 08:58:47;;;;;;;3.75;1.80;;;;;;;25.12;44.22;101540.97;4998810;28;20030;-77
2023/04/16 09:01:13;;;;;;;3.08;1.58;;;;;;;25.10;44.97;101542.31;4998135;28;20026;-77
2023/04/16 09:03:40;;;;;;;2.67;1.80;;;;;;;25.09;44.23;101538.72;5016035;28;20022;-78
2023/04/16 09:06:06;;;;;;;6.68;1.40;;;;;;;23.12;48.62;101541.97;4998934;28;20033;-77
2023/04/16 09:08:48;;;;;;;5.75;1.60;;;;;;;22.65;51.86;101536.50;4998704;28;20049;-78
2023/04/16 09:11:17;;;;;;;6.63;1.90;;;;;;;24.17;48.24;101517.19;5015084;28;20034;-78
2023/04/16 09:13:44;;;;;;;3.25;1.67;;;;;;;24.76;46.03;101536.84;4998509;28;20030;-78
2023/04/16 09:16:12;;;;;;;4.20;1.90;;;;;;;25.43;45.60;101536.72;4998742;28;20041;-79
2023/04/16 09:18:37;;;;;;;4.03;1.65;;;;;;;26.43;44.39;101528.13;5015202;28;20380;-79
2023/04/16 09:21:03;;;;;;;3.58;2.00;;;;;;;26.49;41.52;101523.50;5014527;28;20488;-78
2023/04/16 09:23:29;;;;;;;5.30;2.40;;;;;;;26.70;43.21;101539.13;4998405;28;20465;-76
2023/04/16 09:25:57;;;;;;;3.55;1.80;;;;;;;27.30;39.62;101539.78;5014701;28;20053;-79
2023/04/16 09:28:51;;;;;;;4.22;2.20;;;;;;;26.73;41.46;101533.06;4998861;28;20093;-77
2023/04/16 09:31:18;;;;;;;6.40;2.00;;;;;;;26.57;41.23;101539.59;4993623;28;20089;-78
2023/04/16 09:34:01;;;;;;;4.25;2.65;;;;;;;26.45;41.63;101536.13;4998188;28;20042;-79
2023/04/16 09:36:27;;;;;;;7.07;2.63;;;;;;;26.89;41.17;101547.81;4997994;28;20033;-78
2023/04/16 09:38:53;;;;;;;5.03;2.47;;;;;;;26.70;41.24;101544.66;4997896;28;20117;-75
2023/04/16 09:41:24;;;;;;;5.75;3.00;;;;;;;26.72;41.64;101547.13;4998165;28;20029;-81
2023/04/16 09:43:57;;;;;;;6.95;3.10;;;;;;;27.15;40.35;101553.47;4998473;28;20038;-77
2023/04/16 09:46:30;;;;;;;5.30;2.65;;;;;;;27.42;39.35;101552.53;5014721;28;20083;-78
2023/04/16 09:48:56;;;;;;;3.80;2.50;;;;;;;27.46;40.89;101550.88;5014193;28;20029;-75
2023/04/16 09:51:24;;;;;;;7.85;4.50;;;;;;;27.62;39.18;101549.84;4982077;28;20083;-78
2023/04/16 09:53:55;;;;;;;5.40;2.10;;;;;;;27.71;39.26;101545.47;5014370;28;20033;-78
2023/04/16 09:56:29;;;;;;;3.78;2.00;;;;;;;28.10;37.88;101558.00;5014261;28;20034;-77
2023/04/16 09:59:00;;;;;;;7.10;3.47;;;;;;;27.88;39.75;101550.78;5014314;28;20464;-77
2023/04/16 10:01:26;;;;;;;6.25;3.20;;;;;;;28.63;39.35;101559.44;4997732;28;20193;-78
2023/04/16 10:03:56;;;;;;;10.25;5.05;;;;;;;29.02;36.73;101550.50;5015248;28;20529;-77
2023/04/16 10:06:24;;;;;;;6.40;1.85;;;;;;;28.85;37.52;101548.06;4998257;28;20030;-77
2023/04/16 10:08:51;;;;;;;3.15;1.60;;;;;;;28.70;36.69;101554.44;4997637;28;20038;-77
2023/04/16 10:11:18;;;;;;;2.95;1.80;;;;;;;28.52;36.73;101552.25;4997728;28;20037;-76
2023/04/16 10:13:44;;;;;;;5.03;2.10;;;;;;;28.63;37.81;101558.59;4981891;28;20108;-79
2023/04/16 10:16:10;;;;;;;5.40;1.77;;;;;;;29.01;36.50;101553.59;5013787;28;20180;-77
2023/04/16 10:18:37;;;;;;;6.22;2.15;;;;;;;29.07;36.15;101545.00;5014309;28;20531;-76
2023/04/16 10:21:03;;;;;;;6.32;4.10;;;;;;;29.50;37.91;101552.88;5013631;28;20026;-79
2023/04/16 10:23:29;;;;;;;3.80;2.45;;;;;;;30.16;36.27;101543.34;5013479;28;20040;-77
2023/04/16 10:25:57;;;;;;;3.25;1.67;;;;;;;29.54;35.96;101548.44;4997484;28;20037;-76
2023/04/16 10:28:23;;;;;;;5.10;1.90;;;;;;;29.43;37.13;101555.97;4997314;28;20120;-76
2023/04/16 10:30:52;;;;;;;7.95;2.30;;;;;;;29.50;35.35;101552.88;4981477;28;20091;-76
2023/04/16 10:33:22;;;;;;;6.35;1.92;;;;;;;29.46;35.95;101552.63;5013433;28;20081;-76
2023/04/16 10:35:52;;;;;;;3.65;1.80;;;;;;;29.21;34.77;101559.06;5013604;28;20084;-77
2023/04/16 10:38:27;;;;;;;4.20;1.67;;;;;;;28.20;37.03;101561.59;4981049;28;20054;-78
2023/04/16 10:41:01;;;;;;;6.40;2.85;;;;;;;28.66;38.92;101560.84;4997005;28;20521;-76
2023/04/16 10:43:29;;;;;;;5.20;2.92;;;;;;;29.45;36.41;101564.78;5014207;28;20021;-78
2023/04/16 10:45:55;;;;;;;9.10;4.15;;;;;;;30.01;35.59;101561.78;4980940;28;20092;-80
2023/04/16 10:48:23;;;;;;;3.63;2.92;;;;;;;30.59;34.14;101557.47;5012989;28;20030;-76
2023/04/16 10:50:56;;;;;;;2.95;1.77;;;;;;;30.45;33.58;101558.13;4996613;28;20030;-77
2023/04/16 10:53:28;;;;;;;4.88;1.80;;;;;;;29.51;34.54;101541.50;4980878;28;20130;-76
2023/04/16 10:56:03;;;;;;;3.63;2.07;;;;;;;29.08;36.30;101560.50;4980733;28;20473;-79
2023/04/16 10:58:30;;;;;;;3.20;1.80;;;;;;;29.43;35.65;101541.28;5013226;28;20263;-76
2023/04/16 11:01:00;;;;;;;4.22;1.80;;;;;;;29.08;35.11;101554.13;5012971;28;20034;-76
2023/04/16 11:03:30;;;;;;;4.07;1.70;;;;;;;29.04;36.78;101553.88;4996693;28;20029;-77
2023/04/16 11:06:16;;;;;;;2.75;2.00;;;;;;;30.04;35.61;101556.78;4996715;28;20469;-79
2023/04/16 11:08:46;;;;;;;3.17;1.80;;;;;;;30.09;33.82;101551.16;4996178;28;20034;-80
2023/04/16 11:11:12;;;;;;;4.32;1.70;;;;;;;29.58;34.67;101542.03;5012662;28;20034;-78
2023/04/16 11:13:42;;;;;;;3.60;2.35;;;;;;;29.59;34.85;101548.41;5012369;28;20030;-77
2023/04/16 11:16:07;;;;;;;4.85;1.70;;;;;;;29.72;35.66;101550.59;4996465;28;20034;-77
2023/04/16 11:18:33;;;;;;;6.20;1.98;;;;;;;30.50;34.92;101554.50;5012703;28;20030;-77